createdAt,value
2019-05-25T00:00:01.465Z,0.00
2019-05-25T00:01:01.453Z,0.00
2019-05-25T00:02:01.462Z,0.00
2019-05-25T00:03:01.448Z,0.00
2019-05-25T00:04:01.437Z,0.00
2019-05-25T00:05:01.420Z,0.00
2019-05-25T00:06:01.405Z,0.00
2019-05-25T00:07:01.410Z,0.00
2019-05-25T00:08:01.365Z,0.00
2019-05-25T00:09:01.385Z,0.00
2019-05-25T00:10:01.361Z,0.00
2019-05-25T00:11:01.336Z,0.00
2019-05-25T00:12:01.334Z,0.00
2019-05-25T00:13:01.314Z,0.00
2019-05-25T00:14:01.311Z,0.00
2019-05-25T00:15:01.382Z,0.00
2019-05-25T00:16:01.306Z,0.00
2019-05-25T00:17:01.298Z,0.00
2019-05-25T00:18:01.265Z,0.00
2019-05-25T00:19:01.270Z,0.00
2019-05-25T00:20:01.241Z,0.00
2019-05-25T00:21:01.230Z,0.00
2019-05-25T00:22:01.242Z,0.00
2019-05-25T00:23:01.232Z,0.00
2019-05-25T00:24:11.726Z,0.00
2019-05-25T00:25:02.199Z,0.00
2019-05-25T00:26:01.187Z,0.00
2019-05-25T00:27:01.181Z,0.00
2019-05-25T00:28:01.156Z,0.00
2019-05-25T00:29:01.148Z,0.00
2019-05-25T00:30:01.147Z,0.00
2019-05-25T00:31:01.122Z,0.00
2019-05-25T00:32:01.118Z,0.00
2019-05-25T00:33:01.113Z,0.00
2019-05-25T00:34:01.081Z,0.00
2019-05-25T00:35:01.071Z,0.00
2019-05-25T00:36:01.075Z,0.00
2019-05-25T00:37:01.062Z,0.00
2019-05-25T00:38:01.069Z,0.00
2019-05-25T00:39:01.038Z,0.00
2019-05-25T00:40:01.016Z,0.00
2019-05-25T00:41:01.010Z,0.00
2019-05-25T00:42:01.020Z,0.00
2019-05-25T00:43:01.000Z,0.00
2019-05-25T00:44:00.970Z,0.00
2019-05-25T00:45:00.952Z,0.00
2019-05-25T00:46:00.950Z,0.00
2019-05-25T00:47:00.940Z,0.00
2019-05-25T00:48:00.970Z,0.00
2019-05-25T00:49:00.930Z,0.00
2019-05-25T00:50:00.929Z,0.00
2019-05-25T00:51:00.906Z,0.00
2019-05-25T00:52:00.883Z,0.00
2019-05-25T00:53:00.890Z,0.00
2019-05-25T00:54:00.862Z,0.00
2019-05-25T00:55:00.857Z,0.00
2019-05-25T00:56:00.847Z,0.00
2019-05-25T00:57:00.839Z,0.00
2019-05-25T00:58:00.836Z,0.00
2019-05-25T00:59:00.811Z,0.00
2019-05-25T01:00:00.810Z,0.00
2019-05-25T01:01:00.838Z,0.00
2019-05-25T01:02:00.780Z,0.00
2019-05-25T01:03:00.795Z,0.00
2019-05-25T01:04:00.755Z,0.00
2019-05-25T01:05:00.731Z,0.00
2019-05-25T01:06:00.731Z,0.00
2019-05-25T01:07:00.713Z,0.00
2019-05-25T01:08:00.741Z,0.00
2019-05-25T01:09:00.765Z,0.00
2019-05-25T01:10:00.711Z,0.00
2019-05-25T01:11:00.676Z,0.00
2019-05-25T01:12:00.659Z,0.00
2019-05-25T01:13:00.654Z,0.00
2019-05-25T01:14:00.683Z,0.00
2019-05-25T01:15:00.633Z,0.00
2019-05-25T01:16:00.623Z,0.00
2019-05-25T01:17:00.600Z,0.00
2019-05-25T01:18:00.607Z,0.00
2019-05-25T01:19:00.576Z,0.00
2019-05-25T01:20:00.623Z,0.00
2019-05-25T01:21:00.569Z,0.00
2019-05-25T01:22:00.553Z,0.00
2019-05-25T01:23:00.549Z,0.00
2019-05-25T01:24:00.523Z,0.00
2019-05-25T01:25:00.532Z,0.00
2019-05-25T01:26:00.501Z,0.00
2019-05-25T01:27:00.493Z,0.00
2019-05-25T01:28:00.487Z,0.00
2019-05-25T01:29:00.475Z,0.00
2019-05-25T01:30:00.477Z,0.00
2019-05-25T01:31:00.518Z,0.00
2019-05-25T01:32:00.444Z,0.00
2019-05-25T01:33:00.446Z,0.00
2019-05-25T01:34:00.420Z,0.00
2019-05-25T01:35:00.415Z,0.00
2019-05-25T01:36:00.410Z,0.00
2019-05-25T01:37:00.380Z,0.00
2019-05-25T01:38:00.396Z,0.00
2019-05-25T01:39:00.362Z,0.00
2019-05-25T01:40:00.358Z,0.00
2019-05-25T01:41:00.358Z,0.00
2019-05-25T01:42:00.354Z,0.00
2019-05-25T01:43:00.332Z,0.00
2019-05-25T01:44:00.303Z,0.00
2019-05-25T01:45:00.302Z,0.00
2019-05-25T01:46:00.294Z,0.00
2019-05-25T01:47:00.295Z,0.00
2019-05-25T01:48:00.256Z,0.00
2019-05-25T01:49:00.251Z,0.00
2019-05-25T01:50:00.260Z,0.00
2019-05-25T01:51:00.267Z,0.00
2019-05-25T01:52:00.242Z,0.00
2019-05-25T01:53:00.226Z,0.00
2019-05-25T01:54:00.201Z,0.00
2019-05-25T01:55:00.583Z,0.00
2019-05-25T01:56:00.188Z,0.00
2019-05-25T01:57:00.156Z,0.00
2019-05-25T01:58:00.167Z,0.00
2019-05-25T01:59:00.140Z,0.00
2019-05-25T02:00:00.133Z,0.00
2019-05-25T02:01:00.133Z,0.00
2019-05-25T02:02:00.116Z,0.00
2019-05-25T02:03:00.116Z,0.00
2019-05-25T02:04:00.099Z,0.00
2019-05-25T02:05:00.092Z,0.00
2019-05-25T02:06:00.072Z,0.00
2019-05-25T02:07:00.055Z,0.00
2019-05-25T02:08:00.048Z,0.00
2019-05-25T02:09:00.054Z,0.00
2019-05-25T02:10:00.018Z,0.00
2019-05-25T02:10:59.999Z,0.00
2019-05-25T02:12:00.016Z,0.00
2019-05-25T02:12:59.999Z,0.00
2019-05-25T02:13:59.999Z,4.00
2019-05-25T02:14:59.973Z,4.00
2019-05-25T02:15:59.950Z,4.00
2019-05-25T02:16:59.945Z,0.00
2019-05-25T02:17:59.946Z,0.00
2019-05-25T02:18:59.941Z,4.00
2019-05-25T02:19:59.909Z,4.00
2019-05-25T02:20:59.902Z,4.00
2019-05-25T02:21:59.884Z,4.00
2019-05-25T02:22:59.875Z,8.00
2019-05-25T02:23:59.887Z,4.00
2019-05-25T02:25:14.486Z,8.00
2019-05-25T02:26:00.857Z,8.00
2019-05-25T02:26:59.842Z,8.00
2019-05-25T02:27:59.821Z,8.00
2019-05-25T02:28:59.812Z,8.00
2019-05-25T02:29:59.794Z,12.00
2019-05-25T02:30:59.794Z,16.00
2019-05-25T02:31:59.779Z,16.00
2019-05-25T02:32:59.783Z,20.00
2019-05-25T02:33:59.763Z,20.00
2019-05-25T02:34:59.753Z,20.00
2019-05-25T02:35:59.737Z,28.00
2019-05-25T02:36:59.800Z,28.00
2019-05-25T02:37:59.715Z,32.00
2019-05-25T02:38:59.716Z,36.00
2019-05-25T02:39:59.679Z,36.00
2019-05-25T02:40:59.674Z,40.00
2019-05-25T02:41:59.666Z,44.00
2019-05-25T02:42:59.652Z,52.00
2019-05-25T02:43:59.683Z,60.00
2019-05-25T02:44:59.653Z,64.00
2019-05-25T02:45:59.631Z,72.00
2019-05-25T02:46:59.618Z,80.00
2019-05-25T02:47:59.604Z,88.00
2019-05-25T02:48:59.617Z,96.00
2019-05-25T02:49:59.585Z,112.00
2019-05-25T02:50:59.568Z,120.00
2019-05-25T02:51:59.552Z,132.00
2019-05-25T02:52:59.545Z,144.00
2019-05-25T02:53:59.559Z,156.00
2019-05-25T02:54:59.521Z,168.00
2019-05-25T02:55:59.522Z,184.00
2019-05-25T02:56:59.504Z,192.00
2019-05-25T02:57:59.498Z,208.00
2019-05-25T02:58:59.493Z,220.00
2019-05-25T02:59:59.463Z,236.00
2019-05-25T03:00:59.450Z,252.00
2019-05-25T03:01:59.445Z,268.00
2019-05-25T03:02:59.431Z,284.00
2019-05-25T03:03:59.439Z,300.00
2019-05-25T03:04:59.422Z,320.00
2019-05-25T03:05:59.394Z,340.00
2019-05-25T03:06:59.383Z,360.00
2019-05-25T03:07:59.397Z,380.00
2019-05-25T03:08:59.390Z,400.00
2019-05-25T03:09:59.364Z,424.00
2019-05-25T03:10:59.361Z,448.00
2019-05-25T03:11:59.332Z,468.00
2019-05-25T03:12:59.315Z,492.00
2019-05-25T03:13:59.335Z,516.00
2019-05-25T03:14:59.310Z,540.00
2019-05-25T03:15:59.287Z,572.00
2019-05-25T03:16:59.296Z,600.00
2019-05-25T03:17:59.267Z,628.00
2019-05-25T03:18:59.276Z,660.00
2019-05-25T03:19:59.247Z,692.00
2019-05-25T03:20:59.235Z,724.00
2019-05-25T03:21:59.229Z,752.00
2019-05-25T03:22:59.264Z,780.00
2019-05-25T03:23:59.212Z,808.00
2019-05-25T03:24:59.187Z,840.00
2019-05-25T03:25:59.176Z,876.00
2019-05-25T03:26:59.152Z,916.00
2019-05-25T03:27:59.161Z,968.00
2019-05-25T03:28:59.172Z,1020.00
2019-05-25T03:29:59.137Z,1068.00
2019-05-25T03:30:59.123Z,1128.00
2019-05-25T03:31:59.113Z,1208.00
2019-05-25T03:32:59.088Z,1304.00
2019-05-25T03:33:59.101Z,1384.00
2019-05-25T03:34:59.091Z,1416.00
2019-05-25T03:35:59.078Z,1448.00
2019-05-25T03:36:59.058Z,1500.00
2019-05-25T03:37:59.051Z,1540.00
2019-05-25T03:38:59.024Z,1552.00
2019-05-25T03:39:59.047Z,1600.00
2019-05-25T03:40:59.022Z,1668.00
2019-05-25T03:41:59.017Z,1684.00
2019-05-25T03:42:58.991Z,1668.00
2019-05-25T03:43:58.980Z,1656.00
2019-05-25T03:44:58.967Z,1672.00
2019-05-25T03:45:58.967Z,1724.00
2019-05-25T03:46:58.932Z,1792.00
2019-05-25T03:47:58.967Z,1832.00
2019-05-25T03:48:58.952Z,1860.00
2019-05-25T03:49:58.918Z,1896.00
2019-05-25T03:50:58.914Z,1968.00
2019-05-25T03:51:58.883Z,2060.00
2019-05-25T03:52:58.890Z,2160.00
2019-05-25T03:53:58.860Z,2240.00
2019-05-25T03:54:58.861Z,2324.00
2019-05-25T03:56:05.907Z,2404.00
2019-05-25T03:56:59.827Z,2456.00
2019-05-25T03:57:58.815Z,2464.00
2019-05-25T03:58:58.821Z,2492.00
2019-05-25T03:59:58.802Z,2632.00
2019-05-25T04:00:58.799Z,2844.00
2019-05-25T04:01:58.797Z,3052.00
2019-05-25T04:02:58.766Z,3288.00
2019-05-25T04:03:58.754Z,3500.00
2019-05-25T04:04:58.746Z,3632.00
2019-05-25T04:05:58.726Z,3684.00
2019-05-25T04:06:58.721Z,3704.00
2019-05-25T04:07:58.714Z,3836.00
2019-05-25T04:08:58.721Z,3872.00
2019-05-25T04:09:58.687Z,3888.00
2019-05-25T04:10:58.667Z,4132.00
2019-05-25T04:11:58.670Z,4292.00
2019-05-25T04:12:58.678Z,4332.00
2019-05-25T04:13:58.660Z,4460.00
2019-05-25T04:14:58.636Z,4708.00
2019-05-25T04:15:58.624Z,4960.00
2019-05-25T04:16:58.599Z,5300.00
2019-05-25T04:17:58.801Z,5572.00
2019-05-25T04:18:58.585Z,5688.00
2019-05-25T04:19:58.598Z,5784.00
2019-05-25T04:20:58.572Z,5876.00
2019-05-25T04:21:58.574Z,5928.00
2019-05-25T04:22:58.552Z,5980.00
2019-05-25T04:23:58.542Z,6028.00
2019-05-25T04:24:58.528Z,6016.00
2019-05-25T04:25:58.517Z,6072.00
2019-05-25T04:26:58.508Z,5972.00
2019-05-25T04:27:58.474Z,5924.00
2019-05-25T04:28:58.494Z,5904.00
2019-05-25T04:29:58.469Z,5756.00
2019-05-25T04:30:58.456Z,5676.00
2019-05-25T04:31:58.449Z,5728.00
2019-05-25T04:32:58.437Z,5716.00
2019-05-25T04:33:58.419Z,5500.00
2019-05-25T04:34:58.431Z,5416.00
2019-05-25T04:35:58.401Z,5516.00
2019-05-25T04:36:58.386Z,5540.00
2019-05-25T04:37:58.377Z,5580.00
2019-05-25T04:38:58.371Z,5540.00
2019-05-25T04:39:58.380Z,5748.00
2019-05-25T04:40:58.348Z,6100.00
2019-05-25T04:41:58.324Z,6332.00
2019-05-25T04:42:58.314Z,6448.00
2019-05-25T04:43:58.315Z,6456.00
2019-05-25T04:44:58.316Z,6192.00
2019-05-25T04:45:58.317Z,6120.00
2019-05-25T04:46:58.316Z,6396.00
2019-05-25T04:47:58.267Z,6512.00
2019-05-25T04:48:58.246Z,6480.00
2019-05-25T04:49:58.258Z,6520.00
2019-05-25T04:50:58.219Z,6460.00
2019-05-25T04:51:58.226Z,6264.00
2019-05-25T04:52:58.209Z,6152.00
2019-05-25T04:53:58.213Z,6180.00
2019-05-25T04:54:58.204Z,6424.00
2019-05-25T04:55:58.181Z,6664.00
2019-05-25T04:56:58.160Z,7976.00
2019-05-25T04:57:58.173Z,8820.00
2019-05-25T04:58:58.168Z,9200.00
2019-05-25T04:59:58.137Z,10220.00
2019-05-25T05:00:58.123Z,12568.00
2019-05-25T05:01:58.123Z,11976.00
2019-05-25T05:02:58.095Z,12728.00
2019-05-25T05:03:58.090Z,12344.00
2019-05-25T05:04:58.099Z,12104.00
2019-05-25T05:05:58.089Z,12616.00
2019-05-25T05:06:58.066Z,13704.00
2019-05-25T05:07:58.043Z,14572.00
2019-05-25T05:08:58.029Z,13408.00
2019-05-25T05:10:02.788Z,14180.00
2019-05-25T05:10:59.017Z,19008.00
2019-05-25T05:11:57.998Z,21248.00
2019-05-25T05:12:58.000Z,20800.00
2019-05-25T05:13:57.971Z,18848.00
2019-05-25T05:14:57.963Z,10128.00
2019-05-25T05:15:57.996Z,6280.00
2019-05-25T05:16:57.956Z,6076.00
2019-05-25T05:17:57.941Z,5656.00
2019-05-25T05:18:57.940Z,6044.00
2019-05-25T05:19:57.898Z,5740.00
2019-05-25T05:20:57.920Z,5844.00
2019-05-25T05:21:57.877Z,5904.00
2019-05-25T05:22:57.880Z,6396.00
2019-05-25T05:23:57.874Z,7144.00
2019-05-25T05:24:57.874Z,7800.00
2019-05-25T05:25:57.851Z,8916.00
2019-05-25T05:26:57.852Z,10080.00
2019-05-25T05:27:57.821Z,10732.00
2019-05-25T05:28:57.807Z,10968.00
2019-05-25T05:29:57.806Z,10120.00
2019-05-25T05:30:57.806Z,8760.00
2019-05-25T05:31:57.791Z,7932.00
2019-05-25T05:32:57.775Z,8036.00
2019-05-25T05:33:57.759Z,8080.00
2019-05-25T05:34:57.751Z,8232.00
2019-05-25T05:35:57.739Z,8592.00
2019-05-25T05:36:57.743Z,9368.00
2019-05-25T05:37:57.713Z,10780.00
2019-05-25T05:38:57.713Z,11452.00
2019-05-25T05:39:57.714Z,10996.00
2019-05-25T05:40:57.673Z,10196.00
2019-05-25T05:41:57.681Z,10044.00
2019-05-25T05:42:57.677Z,8036.00
2019-05-25T05:43:57.657Z,8424.00
2019-05-25T05:44:57.664Z,10480.00
2019-05-25T05:45:57.626Z,10136.00
2019-05-25T05:46:57.617Z,10724.00
2019-05-25T05:47:57.627Z,11196.00
2019-05-25T05:48:57.616Z,11332.00
2019-05-25T05:49:57.597Z,11472.00
2019-05-25T05:50:57.570Z,12016.00
2019-05-25T05:51:57.558Z,13244.00
2019-05-25T05:52:57.537Z,13648.00
2019-05-25T05:53:57.556Z,9180.00
2019-05-25T05:54:57.561Z,13764.00
2019-05-25T05:55:57.519Z,13440.00
2019-05-25T05:57:11.144Z,13260.00
2019-05-25T05:57:58.508Z,13424.00
2019-05-25T05:58:57.483Z,9896.00
2019-05-25T05:59:57.481Z,14744.00
2019-05-25T06:00:57.462Z,10016.00
2019-05-25T06:01:57.443Z,9848.00
2019-05-25T06:02:57.448Z,18688.00
2019-05-25T06:03:57.418Z,17376.00
2019-05-25T06:04:57.421Z,7476.00
2019-05-25T06:05:57.395Z,16352.00
2019-05-25T06:06:57.401Z,16864.00
2019-05-25T06:07:57.381Z,24576.00
2019-05-25T06:08:57.372Z,6408.00
2019-05-25T06:09:57.385Z,77312.00
2019-05-25T06:10:57.353Z,22656.00
2019-05-25T06:11:57.323Z,59296.00
2019-05-25T06:12:57.328Z,61504.00
2019-05-25T06:13:57.312Z,34176.00
2019-05-25T06:14:57.298Z,57760.00
2019-05-25T06:15:57.309Z,57568.00
2019-05-25T06:16:57.302Z,54464.00
2019-05-25T06:17:57.267Z,53536.00
2019-05-25T06:18:57.264Z,52096.00
2019-05-25T06:19:57.255Z,51008.00
2019-05-25T06:20:57.262Z,52704.00
2019-05-25T06:21:57.234Z,53920.00
2019-05-25T06:22:57.236Z,36480.00
2019-05-25T06:23:57.197Z,13316.00
2019-05-25T06:24:57.184Z,57664.00
2019-05-25T06:25:57.199Z,56096.00
2019-05-25T06:26:57.160Z,18176.00
2019-05-25T06:27:57.175Z,20160.00
2019-05-25T06:28:57.177Z,60640.00
2019-05-25T06:29:57.144Z,60896.00
2019-05-25T06:30:57.160Z,64704.00
2019-05-25T06:31:57.126Z,66688.00
2019-05-25T06:32:57.103Z,68096.00
2019-05-25T06:33:57.116Z,61376.00
2019-05-25T06:34:57.095Z,57824.00
2019-05-25T06:35:57.079Z,60192.00
2019-05-25T06:36:57.077Z,61952.00
2019-05-25T06:37:57.048Z,64640.00
2019-05-25T06:38:57.039Z,66560.00
2019-05-25T06:39:57.044Z,64832.00
2019-05-25T06:40:57.023Z,66656.00
2019-05-25T06:41:57.038Z,67936.00
2019-05-25T06:42:56.998Z,68832.00
2019-05-25T06:43:56.978Z,69856.00
2019-05-25T06:44:56.981Z,72864.00
2019-05-25T06:45:56.977Z,73760.00
2019-05-25T06:46:56.964Z,23712.00
2019-05-25T06:47:56.963Z,79488.00
2019-05-25T06:48:56.950Z,43072.00
2019-05-25T06:49:56.938Z,18816.00
2019-05-25T06:50:56.922Z,18464.00
2019-05-25T06:51:56.939Z,21920.00
2019-05-25T06:52:58.083Z,22976.00
2019-05-25T06:53:56.889Z,21632.00
2019-05-25T06:54:56.878Z,18400.00
2019-05-25T06:55:56.871Z,17408.00
2019-05-25T06:56:56.853Z,29280.00
2019-05-25T06:57:56.869Z,33088.00
2019-05-25T06:58:56.830Z,26144.00
2019-05-25T06:59:56.827Z,24192.00
2019-05-25T07:00:56.818Z,19744.00
2019-05-25T07:01:56.821Z,24032.00
2019-05-25T07:02:56.812Z,21120.00
2019-05-25T07:03:56.774Z,24864.00
2019-05-25T07:04:56.804Z,24288.00
2019-05-25T07:05:56.784Z,22976.00
2019-05-25T07:06:56.812Z,62208.00
2019-05-25T07:07:56.927Z,23648.00
2019-05-25T07:08:57.561Z,27200.00
2019-05-25T07:09:56.780Z,23936.00
2019-05-25T07:10:58.660Z,64320.00
2019-05-25T07:11:56.695Z,19456.00
2019-05-25T07:12:56.692Z,17984.00
2019-05-25T07:13:56.690Z,14928.00
2019-05-25T07:14:56.673Z,16736.00
2019-05-25T07:15:56.661Z,18528.00
2019-05-25T07:16:56.649Z,19008.00
2019-05-25T07:17:56.622Z,19360.00
2019-05-25T07:18:56.609Z,31232.00
2019-05-25T07:19:56.639Z,14908.00
2019-05-25T07:20:56.614Z,16896.00
2019-05-25T07:21:56.584Z,15516.00
2019-05-25T07:22:56.595Z,15604.00
2019-05-25T07:23:56.564Z,13920.00
2019-05-25T07:24:56.577Z,15372.00
2019-05-25T07:25:56.585Z,14640.00
2019-05-25T07:26:56.556Z,13816.00
2019-05-25T07:28:00.066Z,14152.00
2019-05-25T07:28:56.501Z,13432.00
2019-05-25T07:29:56.526Z,14244.00
2019-05-25T07:30:56.517Z,15576.00
2019-05-25T07:31:56.469Z,16864.00
2019-05-25T07:32:56.451Z,18464.00
2019-05-25T07:33:56.456Z,18240.00
2019-05-25T07:34:56.438Z,17792.00
2019-05-25T07:35:56.552Z,16048.00
2019-05-25T07:36:56.423Z,13332.00
2019-05-25T07:37:56.415Z,11964.00
2019-05-25T07:38:56.395Z,11544.00
2019-05-25T07:39:56.390Z,11556.00
2019-05-25T07:40:56.386Z,15712.00
2019-05-25T07:41:56.385Z,22208.00
2019-05-25T07:42:56.355Z,36000.00
2019-05-25T07:43:56.332Z,24448.00
2019-05-25T07:44:56.329Z,27040.00
2019-05-25T07:45:56.305Z,96704.00
2019-05-25T07:46:56.311Z,15792.00
2019-05-25T07:47:56.307Z,15644.00
2019-05-25T07:48:56.294Z,17696.00
2019-05-25T07:49:56.282Z,16704.00
2019-05-25T07:50:56.268Z,13388.00
2019-05-25T07:51:56.255Z,13800.00
2019-05-25T07:52:56.254Z,13412.00
2019-05-25T07:53:56.231Z,13832.00
2019-05-25T07:54:56.225Z,14504.00
2019-05-25T07:55:56.209Z,12700.00
2019-05-25T07:56:56.199Z,13672.00
2019-05-25T07:57:56.183Z,16296.00
2019-05-25T07:58:56.153Z,15108.00
2019-05-25T07:59:56.161Z,12720.00
2019-05-25T08:00:56.167Z,10196.00
2019-05-25T08:01:56.166Z,10220.00
2019-05-25T08:02:56.149Z,10684.00
2019-05-25T08:03:56.109Z,10216.00
2019-05-25T08:04:56.100Z,10176.00
2019-05-25T08:05:56.078Z,9800.00
2019-05-25T08:06:56.099Z,9504.00
2019-05-25T08:07:56.099Z,10884.00
2019-05-25T08:08:56.070Z,12872.00
2019-05-25T08:09:56.048Z,11976.00
2019-05-25T08:10:56.032Z,12072.00
2019-05-25T08:11:56.043Z,11596.00
2019-05-25T08:12:56.044Z,10148.00
2019-05-25T08:13:56.016Z,11156.00
2019-05-25T08:14:56.004Z,10500.00
2019-05-25T08:15:55.994Z,9936.00
2019-05-25T08:16:55.975Z,9116.00
2019-05-25T08:17:55.977Z,9032.00
2019-05-25T08:18:55.950Z,9004.00
2019-05-25T08:19:55.960Z,9100.00
2019-05-25T08:20:55.932Z,12196.00
2019-05-25T08:21:55.930Z,14380.00
2019-05-25T08:22:55.936Z,17920.00
2019-05-25T08:23:55.895Z,24160.00
2019-05-25T08:24:55.885Z,25408.00
2019-05-25T08:25:55.888Z,21696.00
2019-05-25T08:26:55.883Z,19392.00
2019-05-25T08:27:55.856Z,17120.00
2019-05-25T08:28:55.849Z,14712.00
2019-05-25T08:29:55.835Z,14804.00
2019-05-25T08:30:55.818Z,12436.00
2019-05-25T08:31:55.910Z,9452.00
2019-05-25T08:32:55.803Z,9344.00
2019-05-25T08:33:55.805Z,9148.00
2019-05-25T08:34:55.802Z,8500.00
2019-05-25T08:35:55.764Z,8696.00
2019-05-25T08:36:55.758Z,9028.00
2019-05-25T08:37:55.740Z,8104.00
2019-05-25T08:38:55.734Z,8404.00
2019-05-25T08:39:55.743Z,10304.00
2019-05-25T08:40:55.719Z,10504.00
2019-05-25T08:41:55.696Z,10144.00
2019-05-25T08:42:55.686Z,9296.00
2019-05-25T08:43:55.689Z,8736.00
2019-05-25T08:44:55.684Z,9564.00
2019-05-25T08:45:55.666Z,9600.00
2019-05-25T08:46:55.775Z,9436.00
2019-05-25T08:47:57.241Z,10364.00
2019-05-25T08:48:55.636Z,11208.00
2019-05-25T08:49:56.124Z,12516.00
2019-05-25T08:50:55.603Z,13444.00
2019-05-25T08:51:55.585Z,14880.00
2019-05-25T08:52:55.631Z,16864.00
2019-05-25T08:53:55.567Z,17568.00
2019-05-25T08:54:56.651Z,17216.00
2019-05-25T08:55:55.544Z,16160.00
2019-05-25T08:56:55.627Z,16620.00
2019-05-25T08:57:55.531Z,17280.00
2019-05-25T08:58:55.797Z,16028.00
2019-05-25T08:59:55.504Z,15680.00
2019-05-25T09:00:55.509Z,16072.00
2019-05-25T09:01:55.472Z,16372.00
2019-05-25T09:02:55.461Z,17408.00
2019-05-25T09:03:55.464Z,18944.00
2019-05-25T09:04:55.447Z,18528.00
2019-05-25T09:05:55.455Z,18144.00
2019-05-25T09:06:55.427Z,20416.00
2019-05-25T09:07:55.451Z,24384.00
2019-05-25T09:08:55.408Z,38496.00
2019-05-25T09:09:55.402Z,27680.00
2019-05-25T09:10:55.401Z,24960.00
2019-05-25T09:11:55.390Z,24352.00
2019-05-25T09:12:55.368Z,26304.00
2019-05-25T09:13:55.350Z,24192.00
2019-05-25T09:14:55.340Z,22400.00
2019-05-25T09:15:55.355Z,19040.00
2019-05-25T09:16:55.346Z,16188.00
2019-05-25T09:17:55.318Z,16220.00
2019-05-25T09:18:55.296Z,18848.00
2019-05-25T09:19:55.281Z,20032.00
2019-05-25T09:20:55.272Z,20896.00
2019-05-25T09:22:02.601Z,22816.00
2019-05-25T09:22:56.249Z,24160.00
2019-05-25T09:23:55.253Z,23808.00
2019-05-25T09:24:55.232Z,18752.00
2019-05-25T09:25:55.218Z,17536.00
2019-05-25T09:26:55.222Z,15924.00
2019-05-25T09:27:55.192Z,16220.00
2019-05-25T09:29:03.958Z,15968.00
2019-05-25T09:29:56.175Z,16524.00
2019-05-25T09:30:55.195Z,17504.00
2019-05-25T09:31:55.177Z,17216.00
2019-05-25T09:32:55.206Z,17568.00
2019-05-25T09:33:55.118Z,18624.00
2019-05-25T09:34:55.127Z,20576.00
2019-05-25T09:35:55.139Z,24672.00
2019-05-25T09:36:55.111Z,29120.00
2019-05-25T09:37:55.083Z,31328.00
2019-05-25T09:38:55.076Z,33632.00
2019-05-25T09:39:55.054Z,66240.00
2019-05-25T09:40:55.060Z,31904.00
2019-05-25T09:41:55.025Z,33120.00
2019-05-25T09:42:55.033Z,33088.00
2019-05-25T09:43:55.021Z,31232.00
2019-05-25T09:44:55.013Z,30752.00
2019-05-25T09:45:54.992Z,40864.00
2019-05-25T09:46:54.975Z,25408.00
2019-05-25T09:47:55.039Z,22464.00
2019-05-25T09:48:54.966Z,20160.00
2019-05-25T09:49:54.960Z,17984.00
2019-05-25T09:50:54.963Z,16896.00
2019-05-25T09:51:54.935Z,15956.00
2019-05-25T09:52:54.902Z,14944.00
2019-05-25T09:53:54.919Z,14396.00
2019-05-25T09:54:55.705Z,13644.00
2019-05-25T09:55:54.895Z,12884.00
2019-05-25T09:56:54.891Z,13252.00
2019-05-25T09:57:54.865Z,14008.00
2019-05-25T09:58:54.876Z,15784.00
2019-05-25T09:59:54.833Z,32928.00
2019-05-25T10:00:54.830Z,20640.00
2019-05-25T10:01:54.847Z,22976.00
2019-05-25T10:02:54.860Z,20128.00
2019-05-25T10:03:56.742Z,20512.00
2019-05-25T10:04:54.817Z,22016.00
2019-05-25T10:05:54.800Z,20768.00
2019-05-25T10:06:54.762Z,19584.00
2019-05-25T10:07:54.791Z,17600.00
2019-05-25T10:08:54.743Z,15608.00
2019-05-25T10:09:54.753Z,15460.00
2019-05-25T10:10:54.743Z,20416.00
2019-05-25T10:11:54.711Z,26432.00
2019-05-25T10:12:54.699Z,26368.00
2019-05-25T10:13:54.682Z,23232.00
2019-05-25T10:14:54.694Z,22528.00
2019-05-25T10:15:54.665Z,22784.00
2019-05-25T10:16:54.659Z,21984.00
2019-05-25T10:17:54.662Z,23808.00
2019-05-25T10:18:54.643Z,30720.00
2019-05-25T10:19:54.670Z,28640.00
2019-05-25T10:20:54.637Z,28512.00
2019-05-25T10:21:54.661Z,30688.00
2019-05-25T10:22:54.600Z,35264.00
2019-05-25T10:23:54.574Z,46592.00
2019-05-25T10:24:54.560Z,33184.00
2019-05-25T10:25:54.563Z,32608.00
2019-05-25T10:26:54.542Z,29280.00
2019-05-25T10:27:54.535Z,30400.00
2019-05-25T10:28:54.530Z,31488.00
2019-05-25T10:29:54.557Z,31840.00
2019-05-25T10:30:54.515Z,29024.00
2019-05-25T10:31:54.505Z,28096.00
2019-05-25T10:32:54.483Z,26240.00
2019-05-25T10:33:54.480Z,24032.00
2019-05-25T10:34:54.473Z,23648.00
2019-05-25T10:35:54.446Z,22720.00
2019-05-25T10:36:54.461Z,20544.00
2019-05-25T10:37:54.436Z,20640.00
2019-05-25T10:38:54.411Z,21536.00
2019-05-25T10:39:54.407Z,23040.00
2019-05-25T10:40:54.398Z,27136.00
2019-05-25T10:41:54.406Z,22496.00
2019-05-25T10:42:54.406Z,21344.00
2019-05-25T10:43:54.362Z,22112.00
2019-05-25T10:44:54.372Z,21568.00
2019-05-25T10:45:54.343Z,20416.00
2019-05-25T10:46:54.361Z,19008.00
2019-05-25T10:47:54.343Z,19136.00
2019-05-25T10:48:54.344Z,20000.00
2019-05-25T10:49:54.302Z,19296.00
2019-05-25T10:50:54.304Z,20672.00
2019-05-25T10:51:54.301Z,23776.00
2019-05-25T10:52:54.293Z,23072.00
2019-05-25T10:53:54.313Z,25408.00
2019-05-25T10:54:54.250Z,22944.00
2019-05-25T10:55:54.234Z,24096.00
2019-05-25T10:56:54.272Z,24672.00
2019-05-25T10:57:54.265Z,26400.00
2019-05-25T10:58:54.198Z,28864.00
2019-05-25T10:59:54.201Z,29216.00
2019-05-25T11:00:54.177Z,30112.00
2019-05-25T11:01:54.178Z,36288.00
2019-05-25T11:02:54.191Z,44576.00
2019-05-25T11:03:54.139Z,38592.00
2019-05-25T11:04:54.136Z,40576.00
2019-05-25T11:05:54.136Z,39360.00
2019-05-25T11:06:54.115Z,35040.00
2019-05-25T11:07:54.127Z,52384.00
2019-05-25T11:08:54.091Z,40608.00
2019-05-25T11:09:54.081Z,34848.00
2019-05-25T11:10:54.064Z,31008.00
2019-05-25T11:11:54.075Z,31328.00
2019-05-25T11:12:54.060Z,29952.00
2019-05-25T11:13:54.056Z,26944.00
2019-05-25T11:14:54.034Z,32064.00
2019-05-25T11:15:54.015Z,20640.00
2019-05-25T11:16:54.004Z,20064.00
2019-05-25T11:17:53.984Z,21536.00
2019-05-25T11:18:53.988Z,29696.00
2019-05-25T11:19:53.989Z,28288.00
2019-05-25T11:20:53.961Z,35168.00
2019-05-25T11:21:53.996Z,30400.00
2019-05-25T11:22:53.932Z,27136.00
2019-05-25T11:23:53.952Z,27104.00
2019-05-25T11:24:53.922Z,28640.00
2019-05-25T11:25:53.920Z,28864.00
2019-05-25T11:26:53.907Z,30976.00
2019-05-25T11:27:53.883Z,33376.00
2019-05-25T11:28:53.881Z,43008.00
2019-05-25T11:30:07.885Z,44512.00
2019-05-25T11:30:54.845Z,41152.00
2019-05-25T11:31:58.689Z,35584.00
2019-05-25T11:32:54.842Z,32320.00
2019-05-25T11:33:53.827Z,29632.00
2019-05-25T11:34:53.821Z,29120.00
2019-05-25T11:35:53.798Z,28864.00
2019-05-25T11:36:53.775Z,27552.00
2019-05-25T11:37:53.779Z,24192.00
2019-05-25T11:38:53.777Z,21600.00
2019-05-25T11:39:53.757Z,19296.00
2019-05-25T11:40:53.734Z,17216.00
2019-05-25T11:41:53.725Z,16608.00
2019-05-25T11:42:53.723Z,17792.00
2019-05-25T11:43:53.710Z,21216.00
2019-05-25T11:44:53.713Z,23872.00
2019-05-25T11:45:53.689Z,22976.00
2019-05-25T11:46:53.694Z,21312.00
2019-05-25T11:47:53.671Z,20544.00
2019-05-25T11:48:53.637Z,20032.00
2019-05-25T11:49:53.782Z,18656.00
2019-05-25T11:50:53.737Z,16116.00
2019-05-25T11:51:53.632Z,14860.00
2019-05-25T11:52:53.701Z,15932.00
2019-05-25T11:53:53.605Z,18144.00
2019-05-25T11:54:53.578Z,19072.00
2019-05-25T11:55:53.586Z,20416.00
2019-05-25T11:56:53.595Z,21824.00
2019-05-25T11:57:53.576Z,23872.00
2019-05-25T11:58:53.544Z,24768.00
2019-05-25T11:59:53.539Z,21728.00
2019-05-25T12:00:53.521Z,22336.00
2019-05-25T12:01:53.532Z,23680.00
2019-05-25T12:02:53.497Z,27520.00
2019-05-25T12:03:53.502Z,32544.00
2019-05-25T12:04:53.514Z,29696.00
2019-05-25T12:05:53.478Z,25152.00
2019-05-25T12:06:53.463Z,22688.00
2019-05-25T12:07:53.466Z,19616.00
2019-05-25T12:08:53.441Z,17184.00
2019-05-25T12:09:53.436Z,16928.00